Comfrey, Minnesota
Current Conditions -  °F | °C
As of 1:54 AM on Friday 19 Dec 2014 (Local Time) from KMWM Reporting Station
Broken Clouds Broken Clouds  
Wind Chill: 25°   Ceiling: 2700
Heat Index: 25°   Visibility: 10mi
Dew Point: 23°   Wind: 0mph
Humidity: 93%   Direction: NA
Pressure: 30.19"   Gusts: NA
Location:  44.11°N, 94.9°W
Report Text: KMWM 190754Z AUTO 00000KT 10SM SCT016 BKN027 M04/M05 A3019 RMK AO2
Loading
Personal Weather Stations






























Interactive Weather Map New forecast layout! Learn more

10-Day Weather Forecast

Advertisements
Track Severe Weather on mobile